Time;durP1;ratioP1;P1;durP2;ratioP2;P2;SDS_P1;SDS_P2;PMS_P1;PMS_P2;Temp;Humidity;BMP_temperature;BMP_pressure;BME280_temperature;BME280_humidity;BME280_pressure;Samples;Min_cycle;Max_cycle;Signal;HPM_P1;HPM_P2
2022/11/07 05:00:33;;;;;;;3.47;1.65;;;11.90;99.90;;;;;;5880401;23;20054;-69
2022/11/07 05:02:58;;;;;;;5.20;1.83;;;12.00;99.90;;;;;;4994667;28;20030;-70
2022/11/07 05:05:24;;;;;;;3.50;1.77;;;12.00;99.90;;;;;;4994617;28;20034;-70
2022/11/07 05:07:49;;;;;;;5.03;1.93;;;12.00;99.90;;;;;;4993331;28;20030;-70
2022/11/07 05:10:19;;;;;;;5.97;2.00;;;12.00;99.90;;;;;;4994569;28;20116;-70
2022/11/07 05:12:45;;;;;;;4.97;2.10;;;12.00;99.90;;;;;;4993251;28;20038;-70
2022/11/07 05:15:11;;;;;;;3.80;1.67;;;12.00;99.90;;;;;;4995362;28;20026;-74
2022/11/07 05:17:36;;;;;;;4.33;1.53;;;11.90;99.90;;;;;;4992942;28;20367;-71
2022/11/07 05:20:02;;;;;;;2.53;1.60;;;12.00;99.90;;;;;;4995331;28;20343;-71
2022/11/07 05:25:12;;;;;;;4.50;1.63;;;12.00;99.90;;;;;;4995096;28;20041;-71
2022/11/07 05:27:37;;;;;;;7.40;2.23;;;12.10;99.90;;;;;;4994825;28;20042;-71
2022/11/07 05:30:04;;;;;;;3.90;1.93;;;12.00;99.90;;;;;;4992996;28;20030;-72
2022/11/07 05:32:30;;;;;;;5.63;1.80;;;11.90;99.90;;;;;;5008237;28;20095;-71
2022/11/07 05:34:55;;;;;;;4.30;1.63;;;12.00;99.90;;;;;;5012674;28;20021;-71
2022/11/07 05:37:21;;;;;;;4.17;1.83;;;12.00;99.90;;;;;;5007589;28;20130;-74
2022/11/07 05:39:47;;;;;;;4.23;1.50;;;12.00;99.90;;;;;;5008373;28;20034;-71
2022/11/07 05:42:13;;;;;;;3.13;1.67;;;11.90;99.90;;;;;;5000348;28;20124;-71
2022/11/07 05:44:38;;;;;;;5.10;2.30;;;11.90;99.90;;;;;;4995246;28;20030;-71
2022/11/07 05:47:04;;;;;;;4.60;1.90;;;11.90;99.90;;;;;;4998890;28;20438;-70
2022/11/07 05:49:30;;;;;;;6.63;2.10;;;11.90;99.90;;;;;;5014091;28;20049;-70
2022/11/07 05:51:56;;;;;;;8.67;1.87;;;12.00;99.90;;;;;;4994805;28;20034;-70
2022/11/07 05:54:23;;;;;;;5.38;2.00;;;12.10;99.90;;;;;;5010854;28;20092;-69
2022/11/07 05:56:49;;;;;;;8.52;3.80;;;12.00;99.90;;;;;;5012816;28;20033;-70
2022/11/07 05:59:14;;;;;;;14.50;6.47;;;11.90;99.90;;;;;;5012577;28;20022;-69
2022/11/07 06:01:40;;;;;;;8.83;3.50;;;11.90;99.90;;;;;;5013242;28;20034;-69
2022/11/07 06:04:06;;;;;;;6.30;3.30;;;11.90;99.90;;;;;;5012459;28;20397;-69
2022/11/07 06:06:32;;;;;;;;;;;12.00;99.90;;;;;;5014309;28;20069;-69
2022/11/07 06:08:58;;;;;;;4.28;2.13;;;11.90;99.90;;;;;;5014411;28;19912;-69
2022/11/07 06:11:23;;;;;;;7.63;2.75;;;11.90;99.90;;;;;;5013777;28;20386;-70
2022/11/07 06:13:49;;;;;;;5.33;2.27;;;11.90;99.90;;;;;;5013638;28;20117;-70
2022/11/07 06:16:15;;;;;;;5.07;2.70;;;12.00;99.90;;;;;;5013510;28;20033;-69
2022/11/07 06:18:40;;;;;;;6.43;2.57;;;12.00;99.90;;;;;;5013791;28;20026;-70
2022/11/07 06:21:06;;;;;;;5.53;2.67;;;11.90;99.90;;;;;;5013333;28;20053;-68
2022/11/07 06:23:32;;;;;;;6.97;2.57;;;11.90;99.90;;;;;;5016093;28;20037;-68
2022/11/07 06:25:58;;;;;;;7.00;2.33;;;11.90;99.90;;;;;;5022561;28;20080;-69
2022/11/07 06:28:24;;;;;;;8.93;2.72;;;12.10;99.90;;;;;;5017572;28;20093;-69
2022/11/07 06:30:49;;;;;;;4.93;2.15;;;12.10;99.90;;;;;;5017372;28;20164;-68
2022/11/07 06:33:16;;;;;;;4.23;2.33;;;12.10;99.90;;;;;;5017316;28;20522;-69
2022/11/07 06:35:43;;;;;;;7.22;2.83;;;12.10;99.90;;;;;;5019066;28;20044;-69
2022/11/07 06:38:10;;;;;;;5.70;2.70;;;12.10;99.90;;;;;;5017078;28;20072;-69
2022/11/07 06:40:37;;;;;;;4.78;2.47;;;12.00;99.90;;;;;;5018018;28;20347;-69
2022/11/07 06:43:06;;;;;;;;;;;12.00;99.90;;;;;;5011399;28;20065;-69
2022/11/07 06:45:33;;;;;;;5.35;2.22;;;11.90;99.90;;;;;;5005525;28;20104;-69
2022/11/07 06:47:58;;;;;;;;;;;12.10;99.90;;;;;;5008220;28;20030;-69
2022/11/07 06:50:24;;;;;;;5.38;1.90;;;12.10;99.90;;;;;;5005671;28;19910;-69
2022/11/07 06:52:49;;;;;;;7.80;2.40;;;12.10;99.90;;;;;;5019601;28;20033;-69
2022/11/07 06:55:15;;;;;;;5.97;2.40;;;12.10;99.90;;;;;;5018928;28;20037;-70
2022/11/07 06:57:40;;;;;;;5.40;1.80;;;12.00;99.90;;;;;;5023568;28;20080;-70
2022/11/07 07:00:07;;;;;;;6.83;1.80;;;12.00;99.90;;;;;;5024343;28;20098;-69
2022/11/07 07:02:33;;;;;;;5.25;2.30;;;12.10;99.90;;;;;;5022483;28;20037;-69
2022/11/07 07:04:58;;;;;;;3.93;1.87;;;12.20;99.90;;;;;;5024385;28;20022;-70
2022/11/07 07:07:24;;;;;;;6.97;2.40;;;12.20;99.90;;;;;;5023742;28;20028;-70
2022/11/07 07:09:49;;;;;;;5.87;2.13;;;12.20;99.90;;;;;;5023611;28;20370;-69
2022/11/07 07:12:15;;;;;;;6.00;2.00;;;12.20;99.90;;;;;;5021841;28;20474;-69
2022/11/07 07:14:40;;;;;;;6.80;1.93;;;12.20;99.90;;;;;;5020377;28;20029;-69
2022/11/07 07:17:06;;;;;;;5.20;2.07;;;12.10;99.90;;;;;;5021565;28;20096;-68
2022/11/07 07:19:31;;;;;;;10.30;2.92;;;12.10;99.90;;;;;;5021857;28;20053;-69
2022/11/07 07:21:57;;;;;;;5.23;2.50;;;12.20;99.90;;;;;;5021817;28;20057;-69
2022/11/07 07:24:23;;;;;;;4.87;2.33;;;12.20;99.90;;;;;;5020596;28;20597;-69
2022/11/07 07:26:48;;;;;;;4.60;1.70;;;12.20;99.90;;;;;;5020763;28;20026;-69
2022/11/07 07:29:13;;;;;;;7.00;1.80;;;12.30;99.90;;;;;;5019534;28;20030;-69
2022/11/07 07:31:39;;;;;;;7.00;1.70;;;12.30;99.90;;;;;;5020665;28;20090;-68
2022/11/07 07:34:05;;;;;;;4.40;1.60;;;12.30;99.90;;;;;;5020742;28;20513;-68
2022/11/07 07:36:31;;;;;;;6.03;1.63;;;12.40;99.90;;;;;;5019459;28;20030;-69
2022/11/07 07:38:57;;;;;;;7.13;2.38;;;12.40;99.90;;;;;;5020826;28;20026;-70
2022/11/07 07:41:23;;;;;;;7.72;2.03;;;12.50;99.90;;;;;;5020559;28;20028;-70
2022/11/07 07:43:48;;;;;;;3.23;1.70;;;12.50;99.90;;;;;;5020343;28;20505;-70
2022/11/07 07:46:18;;;;;;;5.03;2.07;;;12.60;99.90;;;;;;5018202;28;20022;-69
2022/11/07 07:48:43;;;;;;;6.10;1.95;;;12.80;99.90;;;;;;5018448;28;20470;-69
2022/11/07 07:51:09;;;;;;;5.57;1.80;;;12.80;99.90;;;;;;5018835;28;20040;-68
2022/11/07 07:53:34;;;;;;;5.43;1.63;;;12.90;99.90;;;;;;5019529;28;20121;-68
2022/11/07 07:56:01;;;;;;;6.30;1.87;;;12.90;99.90;;;;;;5018599;28;20089;-69
2022/11/07 07:58:27;;;;;;;4.63;1.90;;;12.80;99.90;;;;;;5018684;28;20462;-69
2022/11/07 08:00:56;;;;;;;4.30;1.83;;;12.80;99.90;;;;;;5016491;28;20044;-69
2022/11/07 08:03:22;;;;;;;6.07;2.30;;;12.90;99.90;;;;;;5018063;28;20390;-69
2022/11/07 08:05:53;;;;;;;5.47;1.90;;;12.80;99.90;;;;;;5018039;28;20069;-70
2022/11/07 08:08:19;;;;;;;5.50;1.77;;;12.80;99.90;;;;;;5016790;28;20064;-69
2022/11/07 08:10:44;;;;;;;4.50;1.73;;;13.00;99.90;;;;;;5015680;28;20029;-68
2022/11/07 08:13:10;;;;;;;6.72;2.45;;;13.00;99.90;;;;;;5015659;28;20121;-68
2022/11/07 08:15:36;;;;;;;7.40;1.90;;;13.10;99.90;;;;;;5015404;28;20080;-69
2022/11/07 08:18:03;;;;;;;4.60;2.00;;;13.10;99.90;;;;;;5015428;28;20030;-69
2022/11/07 08:20:28;;;;;;;3.55;1.65;;;13.20;99.90;;;;;;5015468;28;20029;-68
2022/11/07 08:23:05;;;;;;;6.27;1.90;;;13.50;99.90;;;;;;5017224;28;20057;-69
2022/11/07 08:25:31;;;;;;;6.43;2.10;;;13.60;99.90;;;;;;5022181;28;20018;-69
2022/11/07 08:27:58;;;;;;;5.68;1.80;;;13.70;99.90;;;;;;5021641;28;20061;-70
2022/11/07 08:30:25;;;;;;;6.28;1.90;;;13.80;99.90;;;;;;5023358;28;20033;-70
2022/11/07 08:32:51;;;;;;;5.88;2.08;;;13.90;99.90;;;;;;5025022;28;20030;-69
2022/11/07 08:35:17;;;;;;;9.57;1.80;;;13.90;99.90;;;;;;5025043;28;20022;-69
2022/11/07 08:37:42;;;;;;;7.83;2.13;;;13.80;99.90;;;;;;5024395;28;20034;-69
2022/11/07 08:40:09;;;;;;;3.83;1.53;;;13.90;99.90;;;;;;5026330;28;20245;-70
2022/11/07 08:42:34;;;;;;;7.50;2.13;;;13.90;99.90;;;;;;5026097;28;20044;-70
2022/11/07 08:45:00;;;;;;;5.13;1.83;;;13.90;99.90;;;;;;5025288;28;20085;-70
2022/11/07 08:47:27;;;;;;;8.23;1.73;;;13.80;99.90;;;;;;5024877;28;20030;-70
2022/11/07 08:49:53;;;;;;;5.05;1.90;;;13.80;99.90;;;;;;5030010;28;20215;-69
2022/11/07 08:52:18;;;;;;;4.55;1.35;;;13.80;99.90;;;;;;5030250;28;20033;-70
2022/11/07 08:54:44;;;;;;;4.80;1.43;;;13.70;99.90;;;;;;5028650;28;20034;-70
2022/11/07 08:57:10;;;;;;;7.70;1.60;;;13.80;99.90;;;;;;5027817;28;20113;-69
2022/11/07 08:59:36;;;;;;;3.97;1.42;;;13.80;99.90;;;;;;5024032;28;20288;-70
2022/11/07 09:02:01;;;;;;;8.97;2.57;;;13.90;99.90;;;;;;5024052;28;20049;-69
2022/11/07 09:04:27;;;;;;;8.52;1.88;;;14.00;99.90;;;;;;5022305;28;20033;-69
2022/11/07 09:06:52;;;;;;;7.07;1.50;;;14.00;99.90;;;;;;5022097;28;20033;-69
2022/11/07 09:09:18;;;;;;;6.33;1.87;;;14.10;99.90;;;;;;5021066;28;20475;-69
2022/11/07 09:11:44;;;;;;;5.07;1.30;;;14.20;99.90;;;;;;5015753;28;20030;-69
2022/11/07 09:14:09;;;;;;;5.33;1.30;;;14.50;99.90;;;;;;5016654;28;20296;-69
2022/11/07 09:16:35;;;;;;;5.13;1.90;;;14.70;99.90;;;;;;5015364;28;20089;-69
2022/11/07 09:19:00;;;;;;;7.33;1.43;;;15.00;99.90;;;;;;5016073;28;20026;-69
2022/11/07 09:21:26;;;;;;;5.67;2.40;;;15.30;99.90;;;;;;5016538;28;20022;-69
2022/11/07 09:23:51;;;;;;;13.00;5.33;;;15.30;99.90;;;;;;5017243;28;20467;-69
2022/11/07 09:26:17;;;;;;;8.57;1.90;;;15.20;99.90;;;;;;5020813;28;20433;-69
2022/11/07 09:28:42;;;;;;;4.90;2.00;;;15.20;99.90;;;;;;5021026;28;20045;-69
2022/11/07 09:31:08;;;;;;;6.77;2.73;;;15.10;99.90;;;;;;5020741;28;20272;-69
2022/11/07 09:33:33;;;;;;;10.23;2.03;;;15.00;99.90;;;;;;5020485;28;20072;-69
2022/11/07 09:36:00;;;;;;;9.57;2.50;;;15.00;99.90;;;;;;5019746;28;20323;-69
2022/11/07 09:38:27;;;;;;;6.28;2.33;;;15.00;99.90;;;;;;5017755;28;20060;-70
2022/11/07 09:41:03;;;;;;;7.28;2.50;;;15.10;99.90;;;;;;5018268;28;20061;-69
2022/11/07 09:44:05;;;;;;;6.40;1.80;;;15.10;99.90;;;;;;5016033;28;20026;-69
2022/11/07 09:46:49;;;;;;;5.85;2.00;;;15.10;99.90;;;;;;5015128;28;20022;-69
2022/11/07 09:49:26;;;;;;;9.23;3.17;;;15.30;99.90;;;;;;5018190;28;20076;-69
2022/11/07 09:51:59;;;;;;;7.95;2.10;;;15.10;99.90;;;;;;5017678;28;20105;-69
2022/11/07 09:54:30;;;;;;;7.00;1.95;;;15.30;99.90;;;;;;5016220;28;20386;-69
2022/11/07 09:56:58;;;;;;;7.25;1.65;;;15.30;99.90;;;;;;5018769;28;20029;-69
2022/11/07 09:59:45;;;;;;;7.70;2.72;;;15.30;99.90;;;;;;5019237;28;20030;-70
2022/11/07 10:02:17;;;;;;;9.57;2.00;;;15.20;99.90;;;;;;5018309;28;20041;-70
2022/11/07 10:04:43;;;;;;;6.28;1.80;;;15.20;99.90;;;;;;5019556;28;20029;-70
2022/11/07 10:07:32;;;;;;;6.13;1.80;;;15.30;99.90;;;;;;5019700;28;20448;-69
2022/11/07 10:10:21;;;;;;;10.23;3.58;;;15.40;99.90;;;;;;4990185;28;20430;-70
2022/11/07 10:13:25;;;;;;;9.50;2.35;;;15.50;99.90;;;;;;5019259;28;20076;-70
2022/11/07 10:16:09;;;;;;;7.05;3.10;;;15.60;99.90;;;;;;5018953;28;20053;-70
2022/11/07 10:19:02;;;;;;;7.15;2.22;;;15.60;99.90;;;;;;5017020;28;20366;-70
2022/11/07 10:21:57;;;;;;;8.65;2.22;;;15.80;99.90;;;;;;5018516;28;20030;-71
2022/11/07 10:24:49;;;;;;;5.78;1.45;;;15.70;99.90;;;;;;5019378;28;20026;-70
2022/11/07 10:27:15;;;;;;;5.00;1.77;;;15.70;99.90;;;;;;4993907;28;20390;-69
2022/11/07 10:29:51;;;;;;;7.10;1.60;;;15.60;99.90;;;;;;5014801;28;20022;-69
2022/11/07 10:32:33;;;;;;;4.38;1.30;;;15.70;99.90;;;;;;5020480;28;20022;-70
2022/11/07 10:35:23;;;;;;;7.05;1.67;;;15.70;99.90;;;;;;5019108;28;20057;-70
2022/11/07 10:38:25;;;;;;;7.60;1.95;;;15.80;99.90;;;;;;5018830;28;20510;-70
2022/11/07 10:40:51;;;;;;;6.70;1.75;;;15.90;99.90;;;;;;5017265;28;20072;-70
2022/11/07 10:43:33;;;;;;;5.95;1.42;;;15.90;99.90;;;;;;5018588;28;20025;-70
2022/11/07 10:46:05;;;;;;;4.88;1.60;;;16.00;99.90;;;;;;5020213;28;20030;-69
2022/11/07 10:48:32;;;;;;;6.45;1.42;;;15.90;99.90;;;;;;5018166;28;20371;-71
2022/11/07 10:50:57;;;;;;;8.05;1.98;;;15.80;99.90;;;;;;5018921;28;20066;-69
2022/11/07 10:53:25;;;;;;;4.78;1.20;;;15.70;99.90;;;;;;5018363;28;20541;-70
2022/11/07 10:55:52;;;;;;;7.80;1.88;;;15.50;99.90;;;;;;5018286;28;20061;-70
2022/11/07 10:58:27;;;;;;;6.82;1.77;;;15.40;99.90;;;;;;5019473;28;20030;-69
2022/11/07 11:01:08;;;;;;;5.35;1.30;;;15.40;99.90;;;;;;5017170;28;20558;-68
2022/11/07 11:03:40;;;;;;;3.15;1.25;;;15.40;99.90;;;;;;5017923;28;20053;-69
2022/11/07 11:06:21;;;;;;;7.95;2.10;;;15.30;99.90;;;;;;5017156;28;20029;-69
2022/11/07 11:08:48;;;;;;;6.20;2.10;;;15.30;99.90;;;;;;5017805;28;20029;-70
2022/11/07 11:11:20;;;;;;;8.73;1.40;;;15.30;99.90;;;;;;5018319;28;20029;-69
2022/11/07 11:13:47;;;;;;;4.63;1.58;;;15.30;99.90;;;;;;5015863;28;20022;-68
2022/11/07 11:16:12;;;;;;;5.55;1.23;;;15.40;99.90;;;;;;5028014;23;20050;-70
2022/11/07 11:18:46;;;;;;;9.60;1.60;;;15.40;99.90;;;;;;5012289;28;20157;-70
2022/11/07 11:21:12;;;;;;;4.85;1.50;;;15.40;99.90;;;;;;4996431;28;20479;-71
2022/11/07 11:23:42;;;;;;;10.65;4.93;;;15.50;99.90;;;;;;4997741;28;20033;-70
2022/11/07 11:26:29;;;;;;;6.60;2.42;;;15.50;99.90;;;;;;4997581;28;20030;-70
2022/11/07 11:28:58;;;;;;;12.98;1.70;;;15.60;99.90;;;;;;4998112;28;20074;-70
2022/11/07 11:31:43;;;;;;;5.10;1.13;;;15.50;99.90;;;;;;4996720;28;20023;-69
2022/11/07 11:34:17;;;;;;;7.72;1.60;;;15.50;99.90;;;;;;4995891;28;20065;-69
2022/11/07 11:37:03;;;;;;;5.25;2.00;;;15.50;99.90;;;;;;4995255;28;20486;-70
2022/11/07 11:40:02;;;;;;;9.55;1.80;;;15.50;99.90;;;;;;4996772;28;20030;-72
2022/11/07 11:42:47;;;;;;;6.30;1.80;;;15.50;99.90;;;;;;4995476;28;20030;-70
2022/11/07 11:45:17;;;;;;;3.17;1.27;;;15.60;99.90;;;;;;4995119;28;20019;-70
2022/11/07 11:48:23;;;;;;;5.78;1.98;;;15.70;99.90;;;;;;4996340;28;20387;-70
2022/11/07 11:50:57;;;;;;;6.45;1.73;;;15.70;99.90;;;;;;4996185;28;20418;-70
2022/11/07 11:53:22;;;;;;;8.23;2.05;;;15.70;99.90;;;;;;4994883;28;20022;-70
2022/11/07 11:56:16;;;;;;;5.20;1.42;;;15.80;99.90;;;;;;4995934;28;20109;-68
2022/11/07 11:59:10;;;;;;;7.22;1.90;;;15.80;99.90;;;;;;4995035;28;20150;-70
2022/11/07 12:02:01;;;;;;;9.20;1.60;;;15.90;99.90;;;;;;4995800;28;20034;-70
2022/11/07 12:04:41;;;;;;;7.85;1.75;;;16.00;99.90;;;;;;4996411;28;20034;-70
2022/11/07 12:07:15;;;;;;;6.18;1.10;;;16.00;99.90;;;;;;4995846;28;20065;-69
2022/11/07 12:09:49;;;;;;;4.93;1.20;;;16.00;99.90;;;;;;4994373;28;20062;-70
2022/11/07 12:12:50;;;;;;;8.90;1.60;;;16.10;99.90;;;;;;4996266;28;20096;-70
2022/11/07 12:15:30;;;;;;;4.80;1.15;;;16.20;99.90;;;;;;4900538;29;20104;-71
2022/11/07 12:18:14;;;;;;;5.97;1.52;;;16.20;99.90;;;;;;4916853;29;20047;-71
2022/11/07 12:20:55;;;;;;;4.70;1.70;;;16.20;99.90;;;;;;4900818;29;20137;-69
2022/11/07 12:23:44;;;;;;;4.18;1.60;;;16.30;99.90;;;;;;4900636;29;20031;-72
2022/11/07 12:26:19;;;;;;;5.47;1.80;;;16.30;99.90;;;;;;4916622;29;20039;-70
2022/11/07 12:29:03;;;;;;;3.35;1.15;;;16.40;99.90;;;;;;4900605;29;20020;-70
2022/11/07 12:31:55;;;;;;;5.95;1.10;;;16.30;99.90;;;;;;4916237;29;20039;-71
2022/11/07 12:34:54;;;;;;;7.32;1.38;;;16.30;99.90;;;;;;4916921;29;20036;-69
2022/11/07 12:38:01;;;;;;;9.30;1.92;;;16.30;99.90;;;;;;4845112;29;20082;-70
2022/11/07 12:40:43;;;;;;;5.13;1.13;;;16.10;99.90;;;;;;4845675;29;20049;-69
2022/11/07 12:43:35;;;;;;;5.35;1.30;;;16.00;99.90;;;;;;4861396;29;20031;-70
2022/11/07 12:46:13;;;;;;;3.70;1.17;;;16.00;99.90;;;;;;4861273;29;20399;-69
2022/11/07 12:49:11;;;;;;;5.70;1.30;;;16.10;99.90;;;;;;4846326;29;20487;-70
2022/11/07 12:51:47;;;;;;;7.93;1.50;;;16.10;99.90;;;;;;4940123;29;20039;-70
2022/11/07 12:54:42;;;;;;;5.30;1.02;;;16.10;99.90;;;;;;4955816;28;20067;-70
2022/11/07 12:57:21;;;;;;;4.53;1.15;;;16.20;99.90;;;;;;4939337;29;20024;-69
2022/11/07 12:59:54;;;;;;;5.90;1.10;;;16.30;99.90;;;;;;4955926;29;20098;-70
2022/11/07 13:02:42;;;;;;;2.97;0.95;;;16.40;99.90;;;;;;4939903;29;20467;-70
2022/11/07 13:05:29;;;;;;;4.60;1.40;;;16.40;99.90;;;;;;4955923;29;20038;-69
2022/11/07 13:07:55;;;;;;;;;;;16.40;99.90;;;;;;4955379;29;20062;-69
2022/11/07 13:10:39;;;;;;;4.78;1.45;;;16.50;99.90;;;;;;4954429;29;20005;-71
2022/11/07 13:13:14;;;;;;;4.18;1.40;;;16.30;99.90;;;;;;4943122;28;20031;-69
2022/11/07 13:15:39;;;;;;;5.43;1.20;;;16.30;99.90;;;;;;4994757;28;20030;-70
2022/11/07 13:18:26;;;;;;;6.32;1.55;;;16.30;99.90;;;;;;4994104;28;20037;-69
2022/11/07 13:21:00;;;;;;;6.90;1.60;;;16.30;99.90;;;;;;4995114;28;20049;-70
2022/11/07 13:23:29;;;;;;;5.05;1.48;;;16.30;99.90;;;;;;4994398;28;20746;-69
2022/11/07 13:25:59;;;;;;;9.60;1.40;;;16.30;99.90;;;;;;4994882;28;20133;-69
2022/11/07 13:28:38;;;;;;;8.95;1.40;;;16.40;99.90;;;;;;4994474;28;20101;-70
2022/11/07 13:31:05;;;;;;;4.45;1.60;;;16.30;99.90;;;;;;4993565;28;20027;-69
2022/11/07 13:33:34;;;;;;;12.25;5.07;;;16.40;99.90;;;;;;4994904;28;20506;-70
2022/11/07 13:36:25;;;;;;;4.72;1.20;;;16.50;99.90;;;;;;4995143;28;20447;-70
2022/11/07 13:38:55;;;;;;;4.82;1.45;;;16.50;99.90;;;;;;4993373;28;20033;-69
2022/11/07 13:41:22;;;;;;;5.63;1.27;;;16.50;99.90;;;;;;4980150;28;20129;-71
2022/11/07 13:44:01;;;;;;;3.50;1.40;;;16.50;99.90;;;;;;4961119;28;20027;-70
2022/11/07 13:46:33;;;;;;;4.50;1.60;;;16.60;99.90;;;;;;4983343;28;20089;-71
2022/11/07 13:49:04;;;;;;;7.20;2.00;;;16.50;99.90;;;;;;4994340;28;20026;-68
2022/11/07 13:51:45;;;;;;;3.60;1.40;;;16.50;99.90;;;;;;4994841;28;20026;-69
2022/11/07 13:54:42;;;;;;;4.35;1.10;;;16.40;99.90;;;;;;4979278;28;20038;-73
2022/11/07 13:57:33;;;;;;;3.17;1.25;;;16.40;99.90;;;;;;4901724;29;20156;-75
2022/11/07 14:00:12;;;;;;;7.07;1.75;;;16.40;99.90;;;;;;4903557;29;20028;-70
2022/11/07 14:02:38;;;;;;;6.95;1.42;;;16.30;99.90;;;;;;4919648;29;20519;-75
2022/11/07 14:05:09;;;;;;;5.82;1.90;;;16.20;99.90;;;;;;4934066;29;20145;-74
2022/11/07 14:07:41;;;;;;;5.63;1.52;;;16.20;99.90;;;;;;4922599;29;20051;-77
2022/11/07 14:10:42;;;;;;;3.08;1.23;;;16.20;99.90;;;;;;4923159;29;20028;-75
2022/11/07 14:13:32;;;;;;;8.98;1.40;;;16.10;99.90;;;;;;4938393;29;20036;-71
2022/11/07 14:16:01;;;;;;;6.53;1.88;;;16.00;99.90;;;;;;4937477;29;20058;-72
2022/11/07 14:18:31;;;;;;;5.50;1.65;;;16.00;99.90;;;;;;4937980;29;20027;-73
2022/11/07 14:20:58;;;;;;;11.65;3.33;;;16.00;99.90;;;;;;4938131;29;20071;-72
2022/11/07 14:23:28;;;;;;;5.93;1.70;;;15.90;99.90;;;;;;4921964;29;20095;-71
2022/11/07 14:26:29;;;;;;;3.83;1.58;;;15.90;99.90;;;;;;4938318;29;20031;-70
2022/11/07 14:28:56;;;;;;;3.22;1.35;;;15.90;99.90;;;;;;4881182;29;20037;-69
2022/11/07 14:31:30;;;;;;;3.78;1.20;;;16.00;99.90;;;;;;4881044;29;20049;-71
2022/11/07 14:34:16;;;;;;;5.82;1.35;;;15.90;99.90;;;;;;4865773;29;20041;-69
2022/11/07 14:36:49;;;;;;;5.38;1.83;;;15.90;99.90;;;;;;4880809;29;20651;-69
2022/11/07 14:39:16;;;;;;;4.97;1.42;;;16.00;99.90;;;;;;4865243;29;20045;-69
2022/11/07 14:41:43;;;;;;;6.22;1.85;;;16.00;99.90;;;;;;4880907;29;20036;-70
2022/11/07 14:44:19;;;;;;;7.47;1.60;;;16.00;99.90;;;;;;4880504;29;20033;-70
2022/11/07 14:46:45;;;;;;;7.15;1.40;;;15.90;99.90;;;;;;4905309;29;20055;-68
2022/11/07 14:49:27;;;;;;;4.35;1.70;;;15.90;99.90;;;;;;4918241;29;20028;-71
2022/11/07 14:51:54;;;;;;;6.63;1.70;;;15.90;99.90;;;;;;4918422;29;20193;-72
2022/11/07 14:54:23;;;;;;;5.22;1.30;;;15.90;99.90;;;;;;4918557;29;20108;-72
2022/11/07 14:56:54;;;;;;;4.28;1.35;;;15.90;99.90;;;;;;4918531;29;20028;-70
2022/11/07 14:59:23;;;;;;;7.15;2.05;;;15.90;99.90;;;;;;4902614;29;20563;-73
2022/11/07 15:02:16;;;;;;;5.15;1.30;;;15.80;99.90;;;;;;4919153;29;20032;-68
2022/11/07 15:04:44;;;;;;;5.80;1.40;;;15.80;99.90;;;;;;4959882;28;20096;-68
2022/11/07 15:07:22;;;;;;;4.00;1.27;;;15.70;99.90;;;;;;4978591;28;20448;-69
2022/11/07 15:09:48;;;;;;;26.55;16.10;;;15.70;99.90;;;;;;4958318;29;20030;-69
2022/11/07 15:12:18;;;;;;;;;;;15.80;99.90;;;;;;4974566;28;20118;-70
2022/11/07 15:14:45;;;;;;;10.75;1.73;;;15.80;99.90;;;;;;4958530;29;19906;-70
2022/11/07 15:17:23;;;;;;;11.68;4.45;;;15.70;99.90;;;;;;4980316;28;20035;-69
2022/11/07 15:19:56;;;;;;;5.70;1.73;;;15.70;99.90;;;;;;4974373;28;20123;-69
2022/11/07 15:22:38;;;;;;;6.97;1.85;;;15.60;99.90;;;;;;4973655;28;20102;-70
2022/11/07 15:25:24;;;;;;;5.35;1.33;;;15.60;99.90;;;;;;4956920;28;20023;-69
2022/11/07 15:27:50;;;;;;;6.27;2.00;;;15.50;99.90;;;;;;4957358;28;20023;-69
2022/11/07 15:30:30;;;;;;;7.82;1.55;;;15.60;99.90;;;;;;4956839;29;20506;-72
2022/11/07 15:32:56;;;;;;;4.28;1.38;;;15.60;99.90;;;;;;4955802;28;20040;-70
2022/11/07 15:35:22;;;;;;;4.93;1.40;;;15.60;99.90;;;;;;4954857;29;20038;-70
2022/11/07 15:37:55;;;;;;;7.05;1.58;;;15.50;99.90;;;;;;4957287;29;20263;-70
2022/11/07 15:40:22;;;;;;;6.07;1.80;;;15.30;99.90;;;;;;4956734;29;20031;-70
2022/11/07 15:42:48;;;;;;;5.30;1.40;;;15.40;99.90;;;;;;4960606;28;20046;-70
2022/11/07 15:45:14;;;;;;;5.32;1.50;;;15.40;99.90;;;;;;4974347;28;20043;-70
2022/11/07 15:47:40;;;;;;;6.05;2.08;;;15.40;99.90;;;;;;4991660;28;20425;-69
2022/11/07 15:50:21;;;;;;;7.70;1.17;;;15.30;99.90;;;;;;4977720;28;20053;-70
2022/11/07 15:52:47;;;;;;;6.55;2.00;;;15.30;99.90;;;;;;4976319;28;20109;-71
2022/11/07 15:55:17;;;;;;;7.82;1.88;;;15.20;99.90;;;;;;4982301;28;20047;-70
2022/11/07 15:57:44;;;;;;;4.95;1.73;;;15.10;99.90;;;;;;4976258;28;20062;-70
2022/11/07 16:00:24;;;;;;;8.60;1.80;;;15.10;99.90;;;;;;4974328;28;20042;-70
2022/11/07 16:02:50;;;;;;;4.80;1.73;;;15.10;99.90;;;;;;4972193;28;20069;-69
2022/11/07 16:05:16;;;;;;;5.63;1.60;;;15.10;99.90;;;;;;4977202;28;20023;-70
2022/11/07 16:07:43;;;;;;;7.72;3.05;;;15.00;99.90;;;;;;4975730;28;20030;-70
2022/11/07 16:10:24;;;;;;;11.05;2.05;;;14.90;99.90;;;;;;4976991;28;20085;-69
2022/11/07 16:12:51;;;;;;;7.05;1.52;;;15.00;99.90;;;;;;4976639;28;20484;-69
2022/11/07 16:15:19;;;;;;;5.30;1.88;;;14.90;99.90;;;;;;4976129;28;20035;-69
2022/11/07 16:17:45;;;;;;;9.95;3.38;;;14.90;99.90;;;;;;4976544;28;20023;-67
2022/11/07 16:20:19;;;;;;;5.60;2.10;;;14.80;99.90;;;;;;4976489;28;20033;-68
2022/11/07 16:22:46;;;;;;;7.65;2.40;;;14.80;99.90;;;;;;4975626;28;20266;-69
2022/11/07 16:25:14;;;;;;;9.10;3.83;;;14.80;99.90;;;;;;4976261;28;20031;-68
2022/11/07 16:27:45;;;;;;;11.07;2.40;;;14.80;99.90;;;;;;4976288;28;20433;-68
2022/11/07 16:30:14;;;;;;;9.45;1.95;;;14.80;99.90;;;;;;4974520;28;20031;-68
2022/11/07 16:32:39;;;;;;;6.00;1.80;;;14.90;99.90;;;;;;4974423;28;20031;-68
2022/11/07 16:35:05;;;;;;;10.77;1.83;;;15.00;99.90;;;;;;4976511;28;20041;-68
2022/11/07 16:37:30;;;;;;;6.95;1.95;;;14.90;99.90;;;;;;4976553;28;20411;-69
2022/11/07 16:39:56;;;;;;;5.97;2.47;;;14.90;99.90;;;;;;4974573;28;20443;-68
2022/11/07 16:42:22;;;;;;;13.05;3.35;;;14.90;99.90;;;;;;4975962;28;20445;-68
2022/11/07 16:44:47;;;;;;;5.10;2.30;;;14.90;99.90;;;;;;4965529;28;20035;-69
2022/11/07 16:47:14;;;;;;;7.53;2.93;;;14.90;99.90;;;;;;4973939;28;20031;-68
2022/11/07 16:49:40;;;;;;;7.95;2.75;;;14.90;99.90;;;;;;4970758;28;20026;-70
2022/11/07 16:52:09;;;;;;;9.80;3.78;;;14.80;99.90;;;;;;4973740;28;20027;-71
2022/11/07 16:54:35;;;;;;;10.05;3.10;;;14.90;99.90;;;;;;4962629;28;20058;-70
2022/11/07 16:57:00;;;;;;;7.47;2.77;;;14.80;99.90;;;;;;4969073;28;20483;-70
2022/11/07 16:59:26;;;;;;;24.23;10.13;;;14.80;99.90;;;;;;4970135;28;20101;-71
2022/11/07 17:01:52;;;;;;;7.93;2.80;;;14.90;99.90;;;;;;4964074;28;20038;-70
2022/11/07 17:04:17;;;;;;;11.15;4.93;;;14.80;99.90;;;;;;4970014;28;20432;-69
2022/11/07 17:06:47;;;;;;;11.35;4.18;;;14.80;99.90;;;;;;4966368;28;20023;-67
2022/11/07 17:09:15;;;;;;;12.75;5.35;;;14.90;99.90;;;;;;4975905;28;20022;-69
2022/11/07 17:11:42;;;;;;;19.65;7.10;;;14.90;99.90;;;;;;4973749;28;20027;-70
2022/11/07 17:14:08;;;;;;;15.90;7.20;;;14.80;99.90;;;;;;4971499;28;20554;-70
2022/11/07 17:16:35;;;;;;;15.07;6.83;;;14.80;99.90;;;;;;4980508;28;20042;-71
2022/11/07 17:19:02;;;;;;;13.35;6.80;;;14.80;99.90;;;;;;4981466;28;20293;-71
2022/11/07 17:21:32;;;;;;;12.52;5.90;;;14.70;99.90;;;;;;4974796;28;20046;-70
2022/11/07 17:23:59;;;;;;;8.65;4.97;;;14.60;99.90;;;;;;4974701;28;20506;-70
2022/11/07 17:26:36;;;;;;;15.07;5.20;;;14.70;99.90;;;;;;4964979;28;20039;-68
2022/11/07 17:29:04;;;;;;;12.45;5.07;;;14.70;99.90;;;;;;4956155;29;20078;-69
2022/11/07 17:31:29;;;;;;;14.80;5.00;;;14.70;99.90;;;;;;4955352;29;20031;-69
2022/11/07 17:33:55;;;;;;;9.70;4.40;;;14.60;99.90;;;;;;4955595;29;20503;-69
2022/11/07 17:36:32;;;;;;;8.33;4.40;;;14.60;99.90;;;;;;4955680;29;20031;-69
2022/11/07 17:38:58;;;;;;;;;;;14.40;99.90;;;;;;4956049;29;20058;-69
2022/11/07 17:41:27;;;;;;;11.40;6.32;;;14.40;99.90;;;;;;4953674;28;20005;-68
2022/11/07 17:43:54;;;;;;;11.00;5.55;;;14.50;99.90;;;;;;4955511;29;20026;-71
2022/11/07 17:46:25;;;;;;;9.52;3.80;;;14.60;99.90;;;;;;4964640;28;20065;-72
2022/11/07 17:48:56;;;;;;;8.52;4.00;;;14.70;99.90;;;;;;4974026;28;20034;-71
2022/11/07 17:51:24;;;;;;;11.20;4.53;;;14.60;99.90;;;;;;4974820;28;20454;-70
2022/11/07 17:53:50;;;;;;;12.85;4.47;;;14.60;99.90;;;;;;4974813;28;20082;-70
2022/11/07 17:56:21;;;;;;;12.27;4.23;;;14.40;99.90;;;;;;4974895;28;20023;-71
2022/11/07 17:58:48;;;;;;;10.45;4.13;;;14.30;99.90;;;;;;4973392;28;20149;-68
2022/11/07 18:01:14;;;;;;;;;;;14.30;99.90;;;;;;4973497;28;20054;-69
2022/11/07 18:03:40;;;;;;;14.48;5.93;;;14.30;99.90;;;;;;4973177;28;19933;-70
2022/11/07 18:06:06;;;;;;;16.52;6.28;;;14.20;99.90;;;;;;4974656;28;20027;-71
2022/11/07 18:08:31;;;;;;;7.70;3.50;;;14.20;99.90;;;;;;4974997;28;20077;-68
2022/11/07 18:11:01;;;;;;;8.03;3.40;;;14.10;99.90;;;;;;4974633;28;20027;-69
2022/11/07 18:13:27;;;;;;;9.27;3.45;;;14.10;99.90;;;;;;4975157;28;20131;-69